Time;durP1;ratioP1;P1;durP2;ratioP2;P2;SDS_P1;SDS_P2;PMS_P1;PMS_P2;Temp;Humidity;BMP_temperature;BMP_pressure;BME280_temperature;BME280_humidity;BME280_pressure;Samples;Min_cycle;Max_cycle;Signal;HPM_P1;HPM_P2
2023/06/20 02:07:01;;;;;;;8.07;3.10;;;;;;;;;;5074498;27;20145;-63
2023/06/20 02:09:28;;;;;;;6.97;3.40;;;;;;;;;;5054107;28;20073;-65
2023/06/20 02:11:55;;;;;;;8.73;3.75;;;;;;;;;;5058614;28;20060;-64
2023/06/20 02:14:21;;;;;;;9.30;3.70;;;;;;;;;;5042910;28;20112;-65
2023/06/20 02:16:49;;;;;;;8.25;3.25;;;;;;;;;;5030691;28;20053;-63
2023/06/20 02:19:15;;;;;;;6.28;3.10;;;;;;;;;;5016277;28;20049;-64
2023/06/20 02:21:43;;;;;;;5.88;2.88;;;;;;;;;;5032746;28;20085;-64
2023/06/20 02:24:12;;;;;;;7.07;2.60;;;;;;;;;;5038945;28;20037;-64
2023/06/20 02:26:40;;;;;;;10.13;2.90;;;;;;;;;;5042206;28;20061;-65
2023/06/20 02:29:07;;;;;;;5.95;2.70;;;;;;;;;;5055838;28;20064;-64
2023/06/20 02:31:35;;;;;;;6.60;3.20;;;;;;;;;;5058717;28;20084;-65
2023/06/20 02:34:03;;;;;;;7.32;2.97;;;;;;;;;;5055213;28;20151;-64
2023/06/20 02:36:30;;;;;;;8.70;3.63;;;;;;;;;;5039133;28;20055;-65
2023/06/20 02:38:57;;;;;;;8.95;3.45;;;;;;;;;;5029757;28;20131;-64
2023/06/20 02:41:25;;;;;;;6.70;2.80;;;;;;;;;;5037070;28;20161;-65
2023/06/20 02:43:51;;;;;;;7.97;3.85;;;;;;;;;;5039266;28;20052;-64
2023/06/20 02:46:21;;;;;;;6.88;3.80;;;;;;;;;;5050084;28;20128;-64
2023/06/20 02:48:51;;;;;;;6.70;3.55;;;;;;;;;;5050020;28;20146;-65
2023/06/20 02:51:21;;;;;;;11.25;3.58;;;;;;;;;;5058536;28;20059;-64
2023/06/20 02:53:53;;;;;;;11.32;3.67;;;;;;;;;;5057825;28;20118;-64
2023/06/20 02:56:19;;;;;;;8.73;3.88;;;;;;;;;;5051788;28;20150;-64
2023/06/20 02:58:51;;;;;;;7.88;3.65;;;;;;;;;;5041704;28;20057;-64
2023/06/20 03:01:22;;;;;;;7.60;4.03;;;;;;;;;;5050934;28;20080;-65
2023/06/20 03:03:51;;;;;;;8.20;3.35;;;;;;;;;;5057060;28;20139;-64
2023/06/20 03:06:18;;;;;;;9.40;4.65;;;;;;;;;;5050830;28;20098;-64
2023/06/20 03:08:49;;;;;;;6.63;2.92;;;;;;;;;;5046328;28;20053;-65
2023/06/20 03:11:16;;;;;;;8.15;4.20;;;;;;;;;;5049798;28;20076;-64
2023/06/20 03:13:42;;;;;;;6.93;3.60;;;;;;;;;;5056789;28;20048;-64
2023/06/20 03:16:10;;;;;;;8.32;4.25;;;;;;;;;;5050534;28;20048;-64
2023/06/20 03:18:36;;;;;;;10.80;3.33;;;;;;;;;;5036943;28;20106;-67
2023/06/20 03:21:03;;;;;;;9.20;4.03;;;;;;;;;;5040599;28;20144;-64
2023/06/20 03:23:29;;;;;;;7.43;3.65;;;;;;;;;;5043462;28;20160;-65
2023/06/20 03:25:56;;;;;;;8.07;3.50;;;;;;;;;;5038930;28;20069;-64
2023/06/20 03:28:22;;;;;;;9.45;4.13;;;;;;;;;;5044569;28;20056;-64
2023/06/20 03:30:48;;;;;;;6.78;3.58;;;;;;;;;;5041018;28;20124;-65
2023/06/20 03:33:16;;;;;;;9.90;4.10;;;;;;;;;;5043414;28;20085;-64
2023/06/20 03:35:42;;;;;;;8.13;3.83;;;;;;;;;;5043666;28;20067;-65
2023/06/20 03:38:09;;;;;;;11.23;5.03;;;;;;;;;;5044560;28;20064;-65
2023/06/20 03:40:39;;;;;;;8.10;4.25;;;;;;;;;;5033118;28;20044;-67
2023/06/20 03:43:05;;;;;;;8.07;3.75;;;;;;;;;;5039840;28;20118;-65
2023/06/20 03:45:32;;;;;;;9.20;3.97;;;;;;;;;;5038634;28;20130;-64
2023/06/20 03:47:58;;;;;;;9.15;3.53;;;;;;;;;;5040439;28;20118;-64
2023/06/20 03:50:27;;;;;;;6.50;3.03;;;;;;;;;;5043717;28;20065;-64
2023/06/20 03:52:53;;;;;;;9.40;4.13;;;;;;;;;;5039499;28;20037;-64
2023/06/20 03:55:20;;;;;;;8.18;4.38;;;;;;;;;;5035562;28;20057;-64
2023/06/20 03:57:46;;;;;;;5.80;3.08;;;;;;;;;;5021387;28;20061;-64
2023/06/20 04:00:13;;;;;;;12.30;3.80;;;;;;;;;;5022193;28;20053;-66
2023/06/20 04:02:41;;;;;;;8.27;4.10;;;;;;;;;;5015327;28;20053;-64
2023/06/20 04:05:08;;;;;;;9.48;3.67;;;;;;;;;;5025367;28;20176;-64
2023/06/20 04:07:36;;;;;;;10.48;4.80;;;;;;;;;;5040312;28;20140;-65
2023/06/20 04:10:03;;;;;;;10.05;3.33;;;;;;;;;;5026967;28;20145;-64
2023/06/20 04:12:29;;;;;;;7.10;3.67;;;;;;;;;;5028345;28;20083;-65
2023/06/20 04:14:56;;;;;;;8.18;4.57;;;;;;;;;;5019537;28;20864;-64
2023/06/20 04:17:22;;;;;;;9.23;4.18;;;;;;;;;;5019495;28;20061;-64
2023/06/20 04:19:48;;;;;;;7.88;3.55;;;;;;;;;;5018280;28;20064;-64
2023/06/20 04:22:15;;;;;;;8.27;3.97;;;;;;;;;;5005389;28;20085;-64
2023/06/20 04:24:43;;;;;;;11.00;4.80;;;;;;;;;;5013263;28;20046;-64
2023/06/20 04:27:10;;;;;;;7.40;4.05;;;;;;;;;;5041440;28;20053;-64
2023/06/20 04:29:36;;;;;;;9.30;4.70;;;;;;;;;;5038809;28;20111;-64
2023/06/20 04:32:03;;;;;;;11.40;4.45;;;;;;;;;;5049006;28;20087;-64
2023/06/20 04:34:30;;;;;;;10.00;4.60;;;;;;;;;;5032159;28;20137;-64
2023/06/20 04:36:56;;;;;;;9.82;5.05;;;;;;;;;;5032185;28;20149;-65
2023/06/20 04:39:23;;;;;;;13.77;6.80;;;;;;;;;;5047346;28;20049;-64
2023/06/20 04:41:50;;;;;;;8.27;4.60;;;;;;;;;;5043771;28;20091;-65
2023/06/20 04:44:17;;;;;;;8.98;4.43;;;;;;;;;;5044535;28;20041;-64
2023/06/20 04:46:43;;;;;;;6.60;3.50;;;;;;;;;;5026283;28;20096;-64
2023/06/20 04:49:10;;;;;;;9.02;4.13;;;;;;;;;;5034215;28;20052;-65
2023/06/20 04:51:40;;;;;;;10.75;4.60;;;;;;;;;;5041105;28;20080;-64
2023/06/20 04:54:07;;;;;;;10.02;4.80;;;;;;;;;;5034535;28;20045;-64
2023/06/20 04:56:40;;;;;;;8.70;3.72;;;;;;;;;;5034556;28;20045;-65
2023/06/20 04:59:08;;;;;;;9.95;4.30;;;;;;;;;;5048925;28;20060;-64
2023/06/20 05:01:34;;;;;;;8.68;4.50;;;;;;;;;;5039786;28;20064;-64
2023/06/20 05:04:04;;;;;;;12.02;4.25;;;;;;;;;;5041038;28;20076;-64
2023/06/20 05:06:30;;;;;;;10.40;4.00;;;;;;;;;;5019812;28;20045;-65
2023/06/20 05:08:57;;;;;;;8.38;4.47;;;;;;;;;;5014007;28;20057;-64
2023/06/20 05:11:24;;;;;;;10.45;4.60;;;;;;;;;;5021282;28;20034;-65
2023/06/20 05:13:50;;;;;;;11.35;4.72;;;;;;;;;;5020183;28;20187;-64
2023/06/20 05:16:18;;;;;;;9.75;4.97;;;;;;;;;;5038400;28;20126;-65
2023/06/20 05:18:46;;;;;;;10.48;6.38;;;;;;;;;;5030838;28;20041;-64
2023/06/20 05:21:12;;;;;;;10.18;4.82;;;;;;;;;;5035129;28;20053;-64
2023/06/20 05:23:38;;;;;;;11.93;5.35;;;;;;;;;;5041433;28;20037;-64
2023/06/20 05:26:05;;;;;;;11.32;5.00;;;;;;;;;;5031970;28;20053;-65
2023/06/20 05:28:31;;;;;;;10.00;4.65;;;;;;;;;;5043394;28;20041;-65
2023/06/20 05:30:58;;;;;;;11.63;6.65;;;;;;;;;;5034413;28;20061;-65
2023/06/20 05:33:26;;;;;;;12.77;6.05;;;;;;;;;;5040700;28;20056;-65
2023/06/20 05:35:52;;;;;;;16.15;7.90;;;;;;;;;;5039476;28;20088;-65
2023/06/20 05:38:18;;;;;;;9.77;4.97;;;;;;;;;;5039517;28;20136;-66
2023/06/20 05:40:45;;;;;;;8.10;3.92;;;;;;;;;;5028810;28;20049;-64
2023/06/20 05:43:11;;;;;;;10.10;5.78;;;;;;;;;;5041463;28;20056;-64
2023/06/20 05:45:38;;;;;;;12.48;6.50;;;;;;;;;;5039784;28;20057;-65
2023/06/20 05:48:08;;;;;;;11.23;6.47;;;;;;;;;;5038923;28;20076;-65
2023/06/20 05:50:37;;;;;;;11.70;6.60;;;;;;;;;;5021545;28;20087;-64
2023/06/20 05:53:03;;;;;;;17.95;5.80;;;;;;;;;;5035640;28;20059;-64
2023/06/20 05:55:30;;;;;;;10.75;5.32;;;;;;;;;;5039731;28;20044;-64
2023/06/20 05:57:56;;;;;;;9.57;4.45;;;;;;;;;;5028622;28;20061;-65
2023/06/20 06:00:22;;;;;;;12.27;5.90;;;;;;;;;;5020856;28;20169;-65
2023/06/20 06:02:49;;;;;;;11.23;5.00;;;;;;;;;;5027322;28;20057;-65
2023/06/20 06:05:16;;;;;;;12.73;6.13;;;;;;;;;;5042322;28;20056;-65
2023/06/20 06:07:44;;;;;;;13.02;5.38;;;;;;;;;;5037005;28;20098;-65
2023/06/20 06:10:10;;;;;;;8.52;4.07;;;;;;;;;;5025004;28;20053;-64
2023/06/20 06:12:37;;;;;;;9.10;4.25;;;;;;;;;;5026408;28;20041;-64
2023/06/20 06:15:04;;;;;;;15.52;7.13;;;;;;;;;;5032460;28;20053;-65
2023/06/20 06:17:31;;;;;;;10.48;4.63;;;;;;;;;;5037316;28;20068;-65
2023/06/20 06:19:57;;;;;;;7.50;4.10;;;;;;;;;;5039731;28;20060;-64
2023/06/20 06:22:24;;;;;;;12.70;5.90;;;;;;;;;;5039485;28;22667;-66
2023/06/20 06:24:52;;;;;;;8.60;3.70;;;;;;;;;;5014429;28;20400;-64
2023/06/20 06:27:22;;;;;;;10.50;6.05;;;;;;;;;;5039985;28;20059;-68
2023/06/20 06:29:48;;;;;;;10.65;5.70;;;;;;;;;;5041563;28;20091;-65
2023/06/20 06:32:16;;;;;;;14.07;6.30;;;;;;;;;;5040811;28;20162;-64
2023/06/20 06:34:42;;;;;;;9.07;4.28;;;;;;;;;;5034523;28;20060;-64
2023/06/20 06:37:10;;;;;;;14.38;6.75;;;;;;;;;;5039237;28;20057;-65
2023/06/20 06:39:37;;;;;;;9.20;4.60;;;;;;;;;;5036675;28;20083;-65
2023/06/20 06:42:05;;;;;;;17.47;6.83;;;;;;;;;;5041118;28;20053;-66
2023/06/20 06:44:32;;;;;;;7.53;3.92;;;;;;;;;;5034330;28;20057;-65
2023/06/20 06:47:00;;;;;;;7.70;4.10;;;;;;;;;;5035045;28;20057;-64
2023/06/20 06:49:27;;;;;;;7.60;4.30;;;;;;;;;;5037750;28;20068;-66
2023/06/20 06:51:53;;;;;;;13.25;6.45;;;;;;;;;;5042443;28;20061;-66
2023/06/20 06:54:20;;;;;;;16.15;6.90;;;;;;;;;;5041525;28;20144;-65
2023/06/20 06:56:47;;;;;;;13.45;5.85;;;;;;;;;;5031816;28;20048;-65
2023/06/20 06:59:15;;;;;;;11.82;6.22;;;;;;;;;;5040877;28;20141;-65
2023/06/20 07:01:41;;;;;;;14.38;5.15;;;;;;;;;;5048745;28;20148;-67
2023/06/20 07:04:07;;;;;;;10.80;5.80;;;;;;;;;;5040724;28;20053;-66
2023/06/20 07:06:34;;;;;;;14.30;6.65;;;;;;;;;;4997917;28;20135;-65
2023/06/20 07:09:00;;;;;;;12.00;5.65;;;;;;;;;;5026888;28;20057;-67
2023/06/20 07:11:27;;;;;;;12.80;6.70;;;;;;;;;;5043522;28;20059;-66
2023/06/20 07:13:53;;;;;;;15.23;6.53;;;;;;;;;;5049549;28;20068;-66
2023/06/20 07:16:21;;;;;;;14.63;6.88;;;;;;;;;;5035041;28;20053;-66
2023/06/20 07:18:48;;;;;;;9.45;5.18;;;;;;;;;;5017500;28;20068;-67
2023/06/20 07:21:14;;;;;;;10.57;5.35;;;;;;;;;;5037927;28;20094;-64
2023/06/20 07:23:40;;;;;;;13.88;7.35;;;;;;;;;;5044884;28;20089;-65
2023/06/20 07:26:07;;;;;;;14.50;7.93;;;;;;;;;;5028824;28;20053;-66
2023/06/20 07:28:33;;;;;;;10.93;6.30;;;;;;;;;;5046489;28;20053;-67
2023/06/20 07:31:00;;;;;;;11.30;5.63;;;;;;;;;;5038226;28;20057;-67
2023/06/20 07:33:28;;;;;;;10.25;5.13;;;;;;;;;;5042202;28;20053;-68
2023/06/20 07:35:54;;;;;;;14.35;6.53;;;;;;;;;;5031658;28;20057;-65
2023/06/20 07:38:21;;;;;;;14.38;6.85;;;;;;;;;;5042715;28;20061;-65
2023/06/20 07:40:47;;;;;;;13.57;7.15;;;;;;;;;;5035351;28;20060;-65
2023/06/20 07:43:14;;;;;;;16.95;7.50;;;;;;;;;;5044301;28;20071;-65
2023/06/20 07:45:41;;;;;;;10.18;4.13;;;;;;;;;;5024766;28;21933;-66
2023/06/20 07:48:07;;;;;;;14.38;6.15;;;;;;;;;;5054662;28;20057;-67
2023/06/20 07:50:35;;;;;;;10.50;5.40;;;;;;;;;;5039238;28;20134;-65
2023/06/20 07:53:02;;;;;;;12.27;6.13;;;;;;;;;;5039744;28;20118;-66
2023/06/20 07:55:29;;;;;;;8.80;4.55;;;;;;;;;;5018741;28;20045;-66
2023/06/20 07:57:56;;;;;;;10.93;6.45;;;;;;;;;;5039462;28;20180;-64
2023/06/20 08:00:24;;;;;;;10.80;5.57;;;;;;;;;;5043771;28;20068;-65
2023/06/20 08:02:53;;;;;;;13.27;6.22;;;;;;;;;;5033359;28;20081;-65
2023/06/20 08:05:19;;;;;;;13.55;6.82;;;;;;;;;;5032502;28;20063;-66
2023/06/20 08:07:47;;;;;;;13.02;5.88;;;;;;;;;;5039109;28;20076;-66
2023/06/20 08:10:14;;;;;;;8.50;3.97;;;;;;;;;;5040226;28;20138;-64
2023/06/20 08:12:40;;;;;;;11.35;5.88;;;;;;;;;;5031948;28;20084;-66
2023/06/20 08:15:07;;;;;;;9.80;5.28;;;;;;;;;;5023174;28;20064;-67
2023/06/20 08:17:35;;;;;;;11.25;5.25;;;;;;;;;;5027037;28;20121;-65
2023/06/20 08:20:05;;;;;;;10.60;5.68;;;;;;;;;;5041342;28;20068;-64
2023/06/20 08:22:32;;;;;;;8.85;5.45;;;;;;;;;;5037162;28;20144;-64
2023/06/20 08:25:00;;;;;;;14.25;6.53;;;;;;;;;;5027693;28;20081;-65
2023/06/20 08:27:26;;;;;;;11.20;6.32;;;;;;;;;;5039573;28;20057;-65
2023/06/20 08:29:53;;;;;;;14.30;5.07;;;;;;;;;;5042413;28;20092;-66
2023/06/20 08:32:19;;;;;;;13.43;7.32;;;;;;;;;;5041962;28;20136;-66
2023/06/20 08:34:49;;;;;;;13.30;6.68;;;;;;;;;;5039753;28;20084;-66
2023/06/20 08:37:15;;;;;;;11.45;5.78;;;;;;;;;;5041898;28;20045;-64
2023/06/20 08:39:42;;;;;;;13.73;6.38;;;;;;;;;;5038262;28;20144;-65
2023/06/20 08:42:10;;;;;;;10.70;5.15;;;;;;;;;;5041771;28;20057;-65
2023/06/20 08:44:37;;;;;;;12.60;6.30;;;;;;;;;;5038492;28;20087;-67
2023/06/20 08:47:03;;;;;;;8.60;4.70;;;;;;;;;;5040438;28;20119;-65
2023/06/20 08:49:30;;;;;;;12.25;5.82;;;;;;;;;;5037711;28;20144;-64
2023/06/20 08:51:58;;;;;;;10.65;4.00;;;;;;;;;;5043231;28;20072;-66
2023/06/20 08:54:26;;;;;;;8.63;5.32;;;;;;;;;;5038226;28;20053;-64
2023/06/20 08:56:52;;;;;;;9.02;4.45;;;;;;;;;;5032307;28;20057;-65
2023/06/20 08:59:22;;;;;;;15.18;6.13;;;;;;;;;;5044076;28;20056;-65
2023/06/20 09:01:49;;;;;;;9.68;4.40;;;;;;;;;;5041306;28;20056;-65
2023/06/20 09:04:15;;;;;;;11.02;5.68;;;;;;;;;;5036568;28;20053;-65
2023/06/20 09:06:42;;;;;;;11.27;5.07;;;;;;;;;;5028656;28;20220;-65
2023/06/20 09:09:15;;;;;;;11.25;4.93;;;;;;;;;;5037102;28;20116;-65
2023/06/20 09:11:47;;;;;;;7.53;4.15;;;;;;;;;;5042957;28;20135;-64
2023/06/20 09:14:15;;;;;;;6.70;3.75;;;;;;;;;;5039053;28;20144;-66
2023/06/20 09:16:43;;;;;;;8.98;4.45;;;;;;;;;;5014331;28;20067;-65
2023/06/20 09:19:09;;;;;;;8.43;3.88;;;;;;;;;;5037090;28;20059;-65
2023/06/20 09:21:36;;;;;;;6.35;3.83;;;;;;;;;;5043427;28;20095;-65
2023/06/20 09:24:03;;;;;;;9.35;4.88;;;;;;;;;;5041202;28;20290;-65
2023/06/20 09:26:30;;;;;;;9.18;4.00;;;;;;;;;;5009875;28;20060;-66
2023/06/20 09:29:06;;;;;;;7.97;3.90;;;;;;;;;;5036939;28;20070;-64
2023/06/20 09:31:39;;;;;;;11.00;5.38;;;;;;;;;;5044699;28;20052;-65
2023/06/20 09:34:09;;;;;;;10.27;4.10;;;;;;;;;;5041719;28;20148;-64
2023/06/20 09:36:35;;;;;;;9.38;3.35;;;;;;;;;;5034578;28;20061;-65
2023/06/20 09:39:03;;;;;;;9.38;4.72;;;;;;;;;;5042787;28;20061;-67
2023/06/20 09:41:29;;;;;;;11.52;5.00;;;;;;;;;;5039751;28;20126;-65
2023/06/20 09:43:56;;;;;;;7.25;4.07;;;;;;;;;;5042281;28;20148;-65
2023/06/20 09:46:23;;;;;;;13.32;5.28;;;;;;;;;;5037437;28;20084;-64
2023/06/20 09:48:50;;;;;;;15.70;6.78;;;;;;;;;;5035641;28;20134;-65
2023/06/20 09:51:18;;;;;;;7.10;4.45;;;;;;;;;;5034431;28;20072;-65
2023/06/20 09:53:47;;;;;;;9.73;5.30;;;;;;;;;;5041629;28;20067;-65
2023/06/20 09:56:15;;;;;;;6.75;3.47;;;;;;;;;;5028432;28;20132;-65
2023/06/20 09:58:42;;;;;;;8.90;3.78;;;;;;;;;;5035365;28;20049;-67
2023/06/20 10:01:11;;;;;;;6.55;3.30;;;;;;;;;;5041005;28;20120;-65
2023/06/20 10:03:39;;;;;;;6.05;3.70;;;;;;;;;;5040884;28;20061;-65
2023/06/20 10:06:05;;;;;;;9.25;3.67;;;;;;;;;;5026220;28;20074;-65
2023/06/20 10:08:33;;;;;;;11.38;4.68;;;;;;;;;;5040547;28;20046;-66
2023/06/20 10:11:00;;;;;;;9.48;3.53;;;;;;;;;;5032596;28;21024;-67
2023/06/20 10:13:27;;;;;;;11.02;3.63;;;;;;;;;;5044745;28;20076;-65
2023/06/20 10:15:53;;;;;;;7.53;3.70;;;;;;;;;;5038582;28;20144;-65
2023/06/20 10:18:20;;;;;;;6.97;3.72;;;;;;;;;;5037781;28;20049;-64
2023/06/20 10:20:46;;;;;;;7.30;4.45;;;;;;;;;;5034803;28;20064;-65
2023/06/20 10:23:13;;;;;;;6.72;4.22;;;;;;;;;;5039162;28;20227;-67
2023/06/20 10:25:52;;;;;;;7.47;3.17;;;;;;;;;;5037918;28;20135;-65
2023/06/20 10:28:20;;;;;;;5.93;2.97;;;;;;;;;;5040542;28;20037;-65
2023/06/20 10:30:57;;;;;;;8.68;3.35;;;;;;;;;;5019831;28;20058;-66
2023/06/20 10:33:29;;;;;;;9.13;3.47;;;;;;;;;;5026452;28;20042;-65
2023/06/20 10:35:57;;;;;;;6.05;3.10;;;;;;;;;;5007793;28;20060;-65
2023/06/20 10:38:25;;;;;;;6.03;3.17;;;;;;;;;;5058859;28;20064;-65
2023/06/20 10:41:06;;;;;;;7.78;3.78;;;;;;;;;;5025341;28;20080;-64
2023/06/20 10:43:46;;;;;;;4.75;2.47;;;;;;;;;;5033502;28;20057;-64
2023/06/20 10:46:12;;;;;;;10.73;5.50;;;;;;;;;;5043764;28;20071;-64
2023/06/20 10:48:39;;;;;;;5.93;3.15;;;;;;;;;;5038286;28;20048;-68
2023/06/20 10:51:06;;;;;;;5.07;2.75;;;;;;;;;;5043897;28;20064;-66
2023/06/20 10:53:34;;;;;;;6.07;3.15;;;;;;;;;;5043010;28;20053;-65
2023/06/20 10:56:02;;;;;;;4.00;2.40;;;;;;;;;;5010259;28;20128;-65
2023/06/20 10:58:31;;;;;;;8.60;3.20;;;;;;;;;;5039553;28;20115;-67
2023/06/20 11:00:59;;;;;;;5.40;2.97;;;;;;;;;;5044877;28;20065;-66
2023/06/20 11:03:25;;;;;;;;;;;;;;;;;;5041359;28;20138;-65
2023/06/20 11:05:52;;;;;;;5.57;3.03;;;;;;;;;;4997056;28;19971;-67
2023/06/20 11:08:21;;;;;;;8.05;3.38;;;;;;;;;;5001198;28;20064;-66
2023/06/20 11:10:48;;;;;;;9.05;2.95;;;;;;;;;;4989721;28;20054;-65
2023/06/20 11:13:14;;;;;;;4.95;2.85;;;;;;;;;;5007489;28;20072;-66
2023/06/20 11:15:41;;;;;;;6.28;3.08;;;;;;;;;;5000423;28;20111;-66
2023/06/20 11:18:09;;;;;;;7.95;3.13;;;;;;;;;;5016089;28;20053;-67
2023/06/20 11:20:37;;;;;;;6.55;2.70;;;;;;;;;;4986162;28;20054;-68
2023/06/20 11:23:04;;;;;;;4.75;2.78;;;;;;;;;;4984757;28;20104;-66
2023/06/20 11:25:32;;;;;;;5.68;2.97;;;;;;;;;;4986368;28;20057;-68
2023/06/20 11:28:04;;;;;;;4.82;2.53;;;;;;;;;;5004378;28;20161;-68
2023/06/20 11:30:51;;;;;;;8.73;2.70;;;;;;;;;;4999307;28;20061;-67
2023/06/20 11:33:20;;;;;;;7.45;2.60;;;;;;;;;;5008331;28;20049;-68
2023/06/20 11:35:49;;;;;;;4.38;2.40;;;;;;;;;;4983088;28;20124;-67
2023/06/20 11:38:18;;;;;;;4.40;2.65;;;;;;;;;;5009256;28;20057;-67
2023/06/20 11:40:47;;;;;;;4.43;2.30;;;;;;;;;;4991117;28;20061;-67
2023/06/20 11:43:35;;;;;;;8.68;2.35;;;;;;;;;;5004550;28;20057;-67
2023/06/20 11:48:49;;;;;;;7.10;2.50;;;;;;;;;;4993100;28;20198;-65
2023/06/20 11:51:16;;;;;;;4.47;2.15;;;;;;;;;;5001308;28;20050;-65
2023/06/20 11:53:44;;;;;;;4.65;2.00;;;;;;;;;;5004995;28;20058;-65
2023/06/20 11:56:12;;;;;;;5.75;2.25;;;;;;;;;;4970582;28;20041;-66
2023/06/20 11:58:39;;;;;;;5.10;2.13;;;;;;;;;;4986730;28;20069;-67
2023/06/20 12:01:17;;;;;;;2.50;1.70;;;;;;;;;;5000576;28;20069;-66
2023/06/20 12:03:45;;;;;;;5.70;2.17;;;;;;;;;;5004743;28;20061;-66
2023/06/20 12:06:31;;;;;;;3.53;1.98;;;;;;;;;;5007448;28;20075;-65
2023/06/20 12:09:01;;;;;;;6.78;2.30;;;;;;;;;;5032499;28;20049;-65
2023/06/20 12:11:28;;;;;;;3.53;2.10;;;;;;;;;;5037977;28;20057;-66
2023/06/20 12:13:54;;;;;;;4.85;2.58;;;;;;;;;;5041340;28;20121;-66
2023/06/20 12:16:21;;;;;;;3.95;2.25;;;;;;;;;;5015727;28;20052;-66
2023/06/20 12:18:51;;;;;;;4.57;2.60;;;;;;;;;;5021044;28;20052;-65
2023/06/20 12:21:19;;;;;;;4.03;1.92;;;;;;;;;;5024475;28;20141;-66
2023/06/20 12:23:48;;;;;;;4.82;2.17;;;;;;;;;;5038685;28;20068;-66
2023/06/20 12:26:35;;;;;;;7.50;1.80;;;;;;;;;;5020025;28;20073;-67
2023/06/20 12:29:03;;;;;;;4.13;1.83;;;;;;;;;;5004959;28;20131;-65
2023/06/20 12:31:34;;;;;;;4.75;2.40;;;;;;;;;;5019749;28;20054;-66
2023/06/20 12:34:01;;;;;;;7.47;2.33;;;;;;;;;;5023026;28;20077;-66
2023/06/20 12:36:27;;;;;;;3.13;1.92;;;;;;;;;;5010216;28;20056;-67
2023/06/20 12:38:55;;;;;;;4.22;2.15;;;;;;;;;;5026018;28;20049;-67
2023/06/20 12:41:21;;;;;;;;;;;;;;;;;;5024265;28;20061;-66
2023/06/20 12:43:48;;;;;;;3.15;2.08;;;;;;;;;;5036938;28;20035;-66
2023/06/20 12:46:14;;;;;;;10.73;7.65;;;;;;;;;;5039355;28;20129;-64
2023/06/20 12:48:41;;;;;;;7.28;3.15;;;;;;;;;;5028200;28;20135;-66
2023/06/20 12:51:07;;;;;;;5.55;2.63;;;;;;;;;;5042679;28;20056;-66
2023/06/20 12:53:35;;;;;;;5.80;2.80;;;;;;;;;;5040774;28;20113;-66
2023/06/20 12:56:02;;;;;;;4.07;2.05;;;;;;;;;;5040327;28;20053;-67
2023/06/20 12:58:33;;;;;;;4.63;2.28;;;;;;;;;;5038302;28;20068;-66
2023/06/20 13:01:00;;;;;;;4.15;2.10;;;;;;;;;;5043638;28;20060;-66
2023/06/20 13:03:27;;;;;;;5.00;2.47;;;;;;;;;;5040476;28;20072;-66
2023/06/20 13:05:53;;;;;;;4.70;2.05;;;;;;;;;;5041954;28;20052;-66
2023/06/20 13:08:19;;;;;;;4.60;2.58;;;;;;;;;;5037477;28;20144;-67
2023/06/20 13:10:46;;;;;;;6.35;3.33;;;;;;;;;;5027073;28;20127;-67
2023/06/20 13:13:14;;;;;;;4.13;2.28;;;;;;;;;;5044451;28;20128;-67
2023/06/20 13:15:40;;;;;;;8.48;2.17;;;;;;;;;;5042480;28;22118;-66
2023/06/20 13:18:09;;;;;;;3.60;2.20;;;;;;;;;;5020373;28;20110;-66
2023/06/20 13:20:35;;;;;;;6.43;2.38;;;;;;;;;;5037227;28;20053;-69
2023/06/20 13:23:02;;;;;;;3.60;2.15;;;;;;;;;;5040949;28;20085;-66
2023/06/20 13:25:28;;;;;;;3.50;2.00;;;;;;;;;;5041830;28;20121;-66
2023/06/20 13:27:55;;;;;;;4.78;2.00;;;;;;;;;;5031856;28;20067;-67
2023/06/20 13:30:23;;;;;;;4.20;2.10;;;;;;;;;;5037543;28;20083;-67
2023/06/20 13:32:49;;;;;;;7.40;2.20;;;;;;;;;;5039781;28;20061;-67
2023/06/20 13:35:17;;;;;;;3.28;1.80;;;;;;;;;;5037961;28;20067;-66
2023/06/20 13:37:44;;;;;;;;;;;;;;;;;;5041744;28;20057;-66
2023/06/20 13:40:12;;;;;;;;;;;;;;;;;;5039179;28;19924;-66
2023/06/20 13:42:41;;;;;;;4.22;2.00;;;;;;;;;;5031273;28;20049;-67
2023/06/20 13:45:08;;;;;;;4.45;2.05;;;;;;;;;;5037863;28;20110;-67
2023/06/20 13:47:36;;;;;;;3.33;1.80;;;;;;;;;;5040753;28;20141;-66
2023/06/20 13:50:02;;;;;;;3.47;1.83;;;;;;;;;;5039232;28;20080;-65
2023/06/20 13:52:31;;;;;;;5.68;2.05;;;;;;;;;;5041511;28;20057;-67
2023/06/20 13:54:57;;;;;;;6.35;1.67;;;;;;;;;;5034623;28;20143;-67
2023/06/20 13:57:24;;;;;;;3.13;2.08;;;;;;;;;;5020039;28;20151;-67
2023/06/20 13:59:51;;;;;;;7.47;2.13;;;;;;;;;;5042027;28;20061;-67
2023/06/20 14:02:17;;;;;;;4.82;2.28;;;;;;;;;;5039548;28;20060;-66
2023/06/20 14:04:45;;;;;;;5.53;3.13;;;;;;;;;;5034305;28;20084;-67
2023/06/20 14:07:12;;;;;;;3.33;2.00;;;;;;;;;;5037068;28;20139;-67
2023/06/20 14:09:38;;;;;;;9.70;4.95;;;;;;;;;;5037318;28;20065;-67
2023/06/20 14:12:05;;;;;;;4.03;2.10;;;;;;;;;;5039443;28;20060;-66
2023/06/20 14:14:31;;;;;;;3.07;2.00;;;;;;;;;;5039032;28;20080;-67
2023/06/20 14:16:58;;;;;;;3.10;1.80;;;;;;;;;;5008813;28;20350;-66
2023/06/20 14:19:24;;;;;;;3.13;2.10;;;;;;;;;;5023852;28;20103;-66
2023/06/20 14:21:52;;;;;;;2.80;1.73;;;;;;;;;;5028109;28;20053;-66
2023/06/20 14:24:18;;;;;;;2.50;1.70;;;;;;;;;;5047050;28;20076;-67
2023/06/20 14:26:45;;;;;;;2.00;1.50;;;;;;;;;;5013748;28;20041;-66
2023/06/20 14:29:11;;;;;;;3.30;1.83;;;;;;;;;;5023466;28;20061;-67
2023/06/20 14:31:37;;;;;;;2.63;1.52;;;;;;;;;;5021969;28;20132;-67
2023/06/20 14:34:04;;;;;;;3.60;1.80;;;;;;;;;;5041847;28;20080;-67
2023/06/20 14:36:34;;;;;;;2.92;1.90;;;;;;;;;;5033119;28;20053;-67
2023/06/20 14:39:02;;;;;;;6.53;1.95;;;;;;;;;;5036600;28;20060;-67
2023/06/20 14:41:29;;;;;;;4.63;2.10;;;;;;;;;;5040767;28;20151;-67
2023/06/20 14:43:55;;;;;;;6.70;2.20;;;;;;;;;;5038764;28;20057;-67
2023/06/20 14:46:22;;;;;;;3.58;1.85;;;;;;;;;;5039317;28;20065;-67
2023/06/20 14:48:49;;;;;;;4.50;1.92;;;;;;;;;;5031989;28;20148;-67
2023/06/20 14:51:16;;;;;;;3.30;1.67;;;;;;;;;;5042218;28;20080;-67
2023/06/20 14:53:42;;;;;;;4.80;1.98;;;;;;;;;;5037920;28;20052;-67
2023/06/20 14:56:10;;;;;;;4.00;2.43;;;;;;;;;;5039634;28;20053;-66
2023/06/20 14:58:37;;;;;;;12.93;8.80;;;;;;;;;;5029560;28;20071;-67
2023/06/20 15:01:03;;;;;;;3.88;1.90;;;;;;;;;;5040852;28;20063;-66
2023/06/20 15:03:29;;;;;;;3.33;1.90;;;;;;;;;;5040946;28;20131;-66
2023/06/20 15:05:56;;;;;;;3.10;1.70;;;;;;;;;;5040786;28;20148;-67
2023/06/20 15:08:23;;;;;;;2.60;1.60;;;;;;;;;;5033660;28;20133;-66
2023/06/20 15:10:49;;;;;;;4.03;1.67;;;;;;;;;;5027014;28;20144;-66
2023/06/20 15:13:18;;;;;;;3.40;2.00;;;;;;;;;;5039116;28;20053;-67
2023/06/20 15:15:44;;;;;;;4.15;1.55;;;;;;;;;;5043240;28;20056;-66
2023/06/20 15:18:11;;;;;;;3.40;1.85;;;;;;;;;;5039636;28;20048;-66
2023/06/20 15:20:38;;;;;;;2.47;1.58;;;;;;;;;;5036295;28;20056;-67
2023/06/20 15:23:05;;;;;;;5.57;1.80;;;;;;;;;;5044844;28;20159;-67
2023/06/20 15:25:31;;;;;;;2.65;1.67;;;;;;;;;;5044532;28;20204;-66
2023/06/20 15:27:58;;;;;;;3.25;1.88;;;;;;;;;;5043923;28;20071;-66
2023/06/20 15:30:30;;;;;;;2.92;1.60;;;;;;;;;;5039631;28;20084;-65
2023/06/20 15:32:57;;;;;;;4.00;1.95;;;;;;;;;;5029276;28;21267;-65
2023/06/20 15:35:23;;;;;;;7.15;1.90;;;;;;;;;;5036195;28;20041;-66
2023/06/20 15:37:50;;;;;;;3.25;1.70;;;;;;;;;;5039254;28;20056;-71
2023/06/20 15:40:16;;;;;;;14.13;2.45;;;;;;;;;;5042037;28;20060;-66
2023/06/20 15:42:43;;;;;;;7.30;2.33;;;;;;;;;;5041642;28;20131;-70
2023/06/20 15:45:10;;;;;;;4.47;2.20;;;;;;;;;;5043810;28;20082;-70
2023/06/20 15:47:38;;;;;;;6.83;2.07;;;;;;;;;;5017504;28;20136;-69
2023/06/20 15:50:05;;;;;;;7.68;2.20;;;;;;;;;;5029506;28;20064;-69
2023/06/20 15:52:31;;;;;;;8.03;2.67;;;;;;;;;;5036661;28;20063;-66
2023/06/20 15:54:58;;;;;;;9.50;2.67;;;;;;;;;;5036235;28;20958;-64
2023/06/20 15:57:24;;;;;;;7.50;2.33;;;;;;;;;;5041205;28;20053;-65
2023/06/20 15:59:51;;;;;;;6.90;2.38;;;;;;;;;;5041112;28;20116;-66
2023/06/20 16:02:18;;;;;;;7.72;2.45;;;;;;;;;;5044599;28;20056;-66
2023/06/20 16:04:44;;;;;;;;;;;;;;;;;;5037654;28;20049;-67
2023/06/20 16:07:13;;;;;;;7.05;2.13;;;;;;;;;;5040630;28;19978;-67
2023/06/20 16:09:40;;;;;;;8.90;2.80;;;;;;;;;;5040309;28;20084;-65
2023/06/20 16:12:08;;;;;;;9.00;2.92;;;;;;;;;;5037935;28;20091;-64
2023/06/20 16:14:35;;;;;;;7.93;2.45;;;;;;;;;;5039668;28;20080;-67
2023/06/20 16:17:01;;;;;;;9.10;2.95;;;;;;;;;;5035339;28;20080;-65
2023/06/20 16:19:28;;;;;;;37.85;21.08;;;;;;;;;;5041710;28;20057;-65
2023/06/20 16:21:54;;;;;;;11.40;5.10;;;;;;;;;;5040253;28;20075;-65
2023/06/20 16:24:22;;;;;;;7.95;2.60;;;;;;;;;;5041923;28;20049;-66
2023/06/20 16:26:48;;;;;;;5.32;2.25;;;;;;;;;;5028162;28;20111;-66
2023/06/20 16:29:15;;;;;;;9.20;2.42;;;;;;;;;;5042053;28;20064;-67
2023/06/20 16:31:43;;;;;;;9.07;2.72;;;;;;;;;;5039222;28;20052;-66
2023/06/20 16:34:09;;;;;;;;;;;;;;;;;;5042419;28;20143;-66
2023/06/20 16:36:36;;;;;;;9.70;2.75;;;;;;;;;;5031451;28;19925;-67
2023/06/20 16:39:05;;;;;;;13.35;2.28;;;;;;;;;;5041140;28;20089;-67
2023/06/20 16:41:34;;;;;;;11.73;2.50;;;;;;;;;;5039632;28;20107;-67
2023/06/20 16:44:00;;;;;;;9.45;2.97;;;;;;;;;;5042582;28;20071;-67
2023/06/20 16:46:27;;;;;;;5.90;2.15;;;;;;;;;;5035509;28;20113;-67
2023/06/20 16:48:54;;;;;;;5.07;2.25;;;;;;;;;;5036850;28;20222;-68
2023/06/20 16:51:20;;;;;;;5.75;2.17;;;;;;;;;;5046382;28;20041;-67